sensor_id;sensor_type;location;lat;lon;timestamp;P1;durP1;ratioP1;P2;durP2;ratioP2
53549;SDS011;73079;52.914;-0.982;2024-02-26T00:01:37;5.90;;;3.53;;
53549;SDS011;73079;52.914;-0.982;2024-02-26T00:04:03;13.82;;;4.95;;
53549;SDS011;73079;52.914;-0.982;2024-02-26T00:06:29;4.63;;;2.97;;
53549;SDS011;73079;52.914;-0.982;2024-02-26T00:08:55;7.65;;;3.63;;
53549;SDS011;73079;52.914;-0.982;2024-02-26T00:11:21;4.38;;;2.70;;
53549;SDS011;73079;52.914;-0.982;2024-02-26T00:13:48;7.18;;;3.72;;
53549;SDS011;73079;52.914;-0.982;2024-02-26T00:16:14;7.63;;;3.60;;
53549;SDS011;73079;52.914;-0.982;2024-02-26T00:18:40;7.28;;;4.13;;
53549;SDS011;73079;52.914;-0.982;2024-02-26T00:21:06;11.13;;;3.80;;
53549;SDS011;73079;52.914;-0.982;2024-02-26T00:23:31;8.80;;;4.43;;
53549;SDS011;73079;52.914;-0.982;2024-02-26T00:25:57;5.38;;;3.63;;
53549;SDS011;73079;52.914;-0.982;2024-02-26T00:28:23;8.48;;;4.05;;
53549;SDS011;73079;52.914;-0.982;2024-02-26T00:30:51;6.78;;;3.83;;
53549;SDS011;73079;52.914;-0.982;2024-02-26T00:33:21;9.45;;;4.32;;
53549;SDS011;73079;52.914;-0.982;2024-02-26T00:35:47;7.78;;;4.45;;
53549;SDS011;73079;52.914;-0.982;2024-02-26T00:38:13;7.40;;;3.25;;
53549;SDS011;73079;52.914;-0.982;2024-02-26T00:40:39;6.32;;;3.70;;
53549;SDS011;73079;52.914;-0.982;2024-02-26T00:43:06;5.95;;;2.92;;
53549;SDS011;73079;52.914;-0.982;2024-02-26T00:45:31;5.65;;;3.40;;
53549;SDS011;73079;52.914;-0.982;2024-02-26T00:47:59;9.20;;;4.05;;
53549;SDS011;73079;52.914;-0.982;2024-02-26T00:50:29;9.35;;;3.85;;
53549;SDS011;73079;52.914;-0.982;2024-02-26T00:52:55;5.97;;;3.65;;
53549;SDS011;73079;52.914;-0.982;2024-02-26T00:55:21;11.80;;;4.53;;
53549;SDS011;73079;52.914;-0.982;2024-02-26T00:57:47;6.13;;;3.00;;
53549;SDS011;73079;52.914;-0.982;2024-02-26T01:00:13;8.70;;;3.80;;
53549;SDS011;73079;52.914;-0.982;2024-02-26T01:02:39;6.97;;;3.05;;
53549;SDS011;73079;52.914;-0.982;2024-02-26T01:05:08;9.93;;;3.65;;
53549;SDS011;73079;52.914;-0.982;2024-02-26T01:07:38;11.38;;;4.47;;
53549;SDS011;73079;52.914;-0.982;2024-02-26T01:10:05;10.20;;;3.97;;
53549;SDS011;73079;52.914;-0.982;2024-02-26T01:12:31;7.60;;;3.85;;
53549;SDS011;73079;52.914;-0.982;2024-02-26T01:14:57;8.63;;;4.00;;
53549;SDS011;73079;52.914;-0.982;2024-02-26T01:17:23;6.03;;;3.22;;
53549;SDS011;73079;52.914;-0.982;2024-02-26T01:19:49;7.25;;;3.83;;
53549;SDS011;73079;52.914;-0.982;2024-02-26T01:22:16;7.35;;;4.22;;
53549;SDS011;73079;52.914;-0.982;2024-02-26T01:24:42;7.85;;;3.65;;
53549;SDS011;73079;52.914;-0.982;2024-02-26T01:27:07;7.30;;;3.97;;
53549;SDS011;73079;52.914;-0.982;2024-02-26T01:29:34;6.22;;;3.42;;
53549;SDS011;73079;52.914;-0.982;2024-02-26T01:32:00;7.88;;;3.05;;
53549;SDS011;73079;52.914;-0.982;2024-02-26T01:34:25;8.80;;;4.38;;
53549;SDS011;73079;52.914;-0.982;2024-02-26T01:36:51;5.70;;;4.07;;
53549;SDS011;73079;52.914;-0.982;2024-02-26T01:39:19;8.95;;;4.53;;
53549;SDS011;73079;52.914;-0.982;2024-02-26T01:41:44;11.50;;;4.18;;
53549;SDS011;73079;52.914;-0.982;2024-02-26T01:44:11;11.85;;;4.40;;
53549;SDS011;73079;52.914;-0.982;2024-02-26T01:46:38;9.48;;;4.65;;
53549;SDS011;73079;52.914;-0.982;2024-02-26T01:49:04;7.63;;;3.97;;
53549;SDS011;73079;52.914;-0.982;2024-02-26T01:51:33;10.05;;;3.58;;
53549;SDS011;73079;52.914;-0.982;2024-02-26T01:54:00;4.63;;;3.20;;
53549;SDS011;73079;52.914;-0.982;2024-02-26T01:56:30;6.65;;;3.42;;
53549;SDS011;73079;52.914;-0.982;2024-02-26T01:58:57;7.85;;;3.40;;
53549;SDS011;73079;52.914;-0.982;2024-02-26T02:01:24;3.90;;;2.65;;
53549;SDS011;73079;52.914;-0.982;2024-02-26T02:03:52;7.35;;;3.65;;
53549;SDS011;73079;52.914;-0.982;2024-02-26T02:06:19;7.78;;;3.53;;
53549;SDS011;73079;52.914;-0.982;2024-02-26T02:08:45;4.72;;;2.90;;
53549;SDS011;73079;52.914;-0.982;2024-02-26T02:11:11;14.20;;;4.60;;
53549;SDS011;73079;52.914;-0.982;2024-02-26T02:13:39;7.90;;;3.70;;
53549;SDS011;73079;52.914;-0.982;2024-02-26T02:16:05;6.53;;;3.03;;
53549;SDS011;73079;52.914;-0.982;2024-02-26T02:18:30;5.50;;;3.67;;
53549;SDS011;73079;52.914;-0.982;2024-02-26T02:20:58;7.78;;;3.35;;
53549;SDS011;73079;52.914;-0.982;2024-02-26T02:23:25;8.50;;;3.92;;
53549;SDS011;73079;52.914;-0.982;2024-02-26T02:25:51;3.03;;;2.22;;
53549;SDS011;73079;52.914;-0.982;2024-02-26T02:28:17;5.72;;;2.97;;
53549;SDS011;73079;52.914;-0.982;2024-02-26T02:30:43;5.32;;;2.97;;
53549;SDS011;73079;52.914;-0.982;2024-02-26T02:33:09;7.97;;;2.95;;
53549;SDS011;73079;52.914;-0.982;2024-02-26T02:35:36;7.45;;;3.40;;
53549;SDS011;73079;52.914;-0.982;2024-02-26T02:38:04;6.03;;;2.40;;
53549;SDS011;73079;52.914;-0.982;2024-02-26T02:40:30;6.60;;;1.85;;
53549;SDS011;73079;52.914;-0.982;2024-02-26T02:42:55;5.80;;;2.70;;
53549;SDS011;73079;52.914;-0.982;2024-02-26T02:45:21;5.97;;;1.95;;
53549;SDS011;73079;52.914;-0.982;2024-02-26T02:47:47;7.43;;;2.42;;
53549;SDS011;73079;52.914;-0.982;2024-02-26T02:50:13;5.82;;;1.95;;
53549;SDS011;73079;52.914;-0.982;2024-02-26T02:52:38;5.03;;;2.35;;
53549;SDS011;73079;52.914;-0.982;2024-02-26T02:55:06;7.70;;;1.98;;
53549;SDS011;73079;52.914;-0.982;2024-02-26T02:57:32;3.63;;;1.27;;
53549;SDS011;73079;52.914;-0.982;2024-02-26T02:59:58;7.03;;;1.75;;
53549;SDS011;73079;52.914;-0.982;2024-02-26T03:02:24;8.45;;;2.13;;
53549;SDS011;73079;52.914;-0.982;2024-02-26T03:04:50;3.75;;;1.65;;
53549;SDS011;73079;52.914;-0.982;2024-02-26T03:07:16;3.83;;;1.65;;
53549;SDS011;73079;52.914;-0.982;2024-02-26T03:09:42;5.03;;;1.20;;
53549;SDS011;73079;52.914;-0.982;2024-02-26T03:12:09;2.53;;;1.20;;
53549;SDS011;73079;52.914;-0.982;2024-02-26T03:14:36;6.13;;;1.42;;
53549;SDS011;73079;52.914;-0.982;2024-02-26T03:17:05;6.70;;;2.08;;
53549;SDS011;73079;52.914;-0.982;2024-02-26T03:19:33;4.72;;;1.50;;
53549;SDS011;73079;52.914;-0.982;2024-02-26T03:22:02;5.22;;;1.25;;
53549;SDS011;73079;52.914;-0.982;2024-02-26T03:24:31;2.35;;;1.00;;
53549;SDS011;73079;52.914;-0.982;2024-02-26T03:26:59;5.45;;;1.40;;
53549;SDS011;73079;52.914;-0.982;2024-02-26T03:29:30;7.50;;;2.13;;
53549;SDS011;73079;52.914;-0.982;2024-02-26T03:31:59;4.43;;;2.40;;
53549;SDS011;73079;52.914;-0.982;2024-02-26T03:34:27;5.95;;;2.28;;
53549;SDS011;73079;52.914;-0.982;2024-02-26T03:36:56;5.00;;;2.03;;
53549;SDS011;73079;52.914;-0.982;2024-02-26T03:39:22;2.38;;;1.10;;
53549;SDS011;73079;52.914;-0.982;2024-02-26T03:41:48;7.38;;;1.73;;
53549;SDS011;73079;52.914;-0.982;2024-02-26T03:44:15;10.38;;;1.67;;
53549;SDS011;73079;52.914;-0.982;2024-02-26T03:46:45;10.02;;;2.05;;
53549;SDS011;73079;52.914;-0.982;2024-02-26T03:49:14;4.47;;;1.58;;
53549;SDS011;73079;52.914;-0.982;2024-02-26T03:51:42;4.53;;;1.67;;
53549;SDS011;73079;52.914;-0.982;2024-02-26T03:54:08;5.22;;;2.10;;
53549;SDS011;73079;52.914;-0.982;2024-02-26T03:56:34;2.88;;;1.58;;
53549;SDS011;73079;52.914;-0.982;2024-02-26T03:59:00;6.72;;;1.80;;
53549;SDS011;73079;52.914;-0.982;2024-02-26T04:01:27;4.78;;;1.48;;
53549;SDS011;73079;52.914;-0.982;2024-02-26T04:03:54;7.03;;;1.98;;
53549;SDS011;73079;52.914;-0.982;2024-02-26T04:06:20;11.77;;;2.03;;
53549;SDS011;73079;52.914;-0.982;2024-02-26T04:08:47;4.68;;;1.90;;
53549;SDS011;73079;52.914;-0.982;2024-02-26T04:11:13;5.18;;;1.65;;
53549;SDS011;73079;52.914;-0.982;2024-02-26T04:13:42;1.30;;;1.20;;
53549;SDS011;73079;52.914;-0.982;2024-02-26T04:16:11;7.07;;;1.70;;
53549;SDS011;73079;52.914;-0.982;2024-02-26T04:18:36;4.30;;;1.90;;
53549;SDS011;73079;52.914;-0.982;2024-02-26T04:21:04;5.25;;;1.40;;
53549;SDS011;73079;52.914;-0.982;2024-02-26T04:23:32;7.38;;;1.83;;
53549;SDS011;73079;52.914;-0.982;2024-02-26T04:25:58;5.45;;;1.63;;
53549;SDS011;73079;52.914;-0.982;2024-02-26T04:28:23;2.67;;;1.27;;
53549;SDS011;73079;52.914;-0.982;2024-02-26T04:30:51;3.95;;;1.73;;
53549;SDS011;73079;52.914;-0.982;2024-02-26T04:33:17;8.02;;;1.92;;
53549;SDS011;73079;52.914;-0.982;2024-02-26T04:35:43;2.55;;;1.33;;
53549;SDS011;73079;52.914;-0.982;2024-02-26T04:38:10;2.92;;;1.25;;
53549;SDS011;73079;52.914;-0.982;2024-02-26T04:40:36;8.18;;;1.98;;
53549;SDS011;73079;52.914;-0.982;2024-02-26T04:43:01;3.08;;;1.48;;
53549;SDS011;73079;52.914;-0.982;2024-02-26T04:45:27;7.03;;;1.90;;
53549;SDS011;73079;52.914;-0.982;2024-02-26T04:47:53;4.07;;;1.77;;
53549;SDS011;73079;52.914;-0.982;2024-02-26T04:50:19;7.93;;;2.53;;
53549;SDS011;73079;52.914;-0.982;2024-02-26T04:52:45;7.22;;;2.45;;
53549;SDS011;73079;52.914;-0.982;2024-02-26T04:55:12;7.10;;;2.60;;
53549;SDS011;73079;52.914;-0.982;2024-02-26T04:57:38;9.65;;;2.67;;
53549;SDS011;73079;52.914;-0.982;2024-02-26T05:00:04;6.10;;;2.17;;
53549;SDS011;73079;52.914;-0.982;2024-02-26T05:02:30;5.43;;;1.52;;
53549;SDS011;73079;52.914;-0.982;2024-02-26T05:04:57;2.42;;;1.55;;
53549;SDS011;73079;52.914;-0.982;2024-02-26T05:07:23;8.75;;;2.42;;
53549;SDS011;73079;52.914;-0.982;2024-02-26T05:09:49;5.72;;;1.83;;
53549;SDS011;73079;52.914;-0.982;2024-02-26T05:12:19;4.22;;;1.55;;
53549;SDS011;73079;52.914;-0.982;2024-02-26T05:14:46;2.42;;;1.50;;
53549;SDS011;73079;52.914;-0.982;2024-02-26T05:17:14;8.15;;;2.08;;
53549;SDS011;73079;52.914;-0.982;2024-02-26T05:19:40;5.10;;;1.40;;
53549;SDS011;73079;52.914;-0.982;2024-02-26T05:22:05;6.55;;;2.38;;
53549;SDS011;73079;52.914;-0.982;2024-02-26T05:24:31;6.85;;;1.80;;
53549;SDS011;73079;52.914;-0.982;2024-02-26T05:26:59;5.55;;;1.73;;
53549;SDS011;73079;52.914;-0.982;2024-02-26T05:29:28;5.28;;;2.30;;
53549;SDS011;73079;52.914;-0.982;2024-02-26T05:31:54;6.32;;;1.63;;
53549;SDS011;73079;52.914;-0.982;2024-02-26T05:34:20;8.70;;;1.73;;
53549;SDS011;73079;52.914;-0.982;2024-02-26T05:36:46;4.20;;;1.70;;
53549;SDS011;73079;52.914;-0.982;2024-02-26T05:39:13;6.60;;;1.45;;
53549;SDS011;73079;52.914;-0.982;2024-02-26T05:41:40;6.30;;;2.17;;
53549;SDS011;73079;52.914;-0.982;2024-02-26T05:44:07;6.65;;;1.85;;
53549;SDS011;73079;52.914;-0.982;2024-02-26T05:46:36;8.93;;;2.20;;
53549;SDS011;73079;52.914;-0.982;2024-02-26T05:49:02;6.95;;;1.77;;
53549;SDS011;73079;52.914;-0.982;2024-02-26T05:51:28;6.07;;;2.30;;
53549;SDS011;73079;52.914;-0.982;2024-02-26T05:53:54;7.53;;;1.50;;
53549;SDS011;73079;52.914;-0.982;2024-02-26T05:56:20;12.02;;;1.80;;
53549;SDS011;73079;52.914;-0.982;2024-02-26T05:58:46;11.30;;;2.00;;
53549;SDS011;73079;52.914;-0.982;2024-02-26T06:01:12;5.03;;;2.20;;
53549;SDS011;73079;52.914;-0.982;2024-02-26T06:03:39;7.20;;;1.70;;
53549;SDS011;73079;52.914;-0.982;2024-02-26T06:06:05;6.68;;;1.50;;
53549;SDS011;73079;52.914;-0.982;2024-02-26T06:08:31;5.43;;;1.73;;
53549;SDS011;73079;52.914;-0.982;2024-02-26T06:10:57;4.78;;;1.50;;
53549;SDS011;73079;52.914;-0.982;2024-02-26T06:13:23;7.75;;;1.75;;
53549;SDS011;73079;52.914;-0.982;2024-02-26T06:15:49;5.70;;;1.58;;
53549;SDS011;73079;52.914;-0.982;2024-02-26T06:18:14;3.42;;;1.63;;
53549;SDS011;73079;52.914;-0.982;2024-02-26T06:20:42;8.32;;;1.50;;
53549;SDS011;73079;52.914;-0.982;2024-02-26T06:23:08;4.82;;;1.52;;
53549;SDS011;73079;52.914;-0.982;2024-02-26T06:25:35;4.32;;;1.55;;
53549;SDS011;73079;52.914;-0.982;2024-02-26T06:28:00;7.80;;;1.85;;
53549;SDS011;73079;52.914;-0.982;2024-02-26T06:30:26;6.40;;;1.88;;
53549;SDS011;73079;52.914;-0.982;2024-02-26T06:32:52;6.97;;;1.92;;
53549;SDS011;73079;52.914;-0.982;2024-02-26T06:35:18;2.50;;;1.25;;
53549;SDS011;73079;52.914;-0.982;2024-02-26T06:37:45;5.15;;;1.80;;
53549;SDS011;73079;52.914;-0.982;2024-02-26T06:40:11;5.65;;;1.65;;
53549;SDS011;73079;52.914;-0.982;2024-02-26T06:42:37;3.97;;;1.70;;
53549;SDS011;73079;52.914;-0.982;2024-02-26T06:45:03;6.28;;;1.90;;
53549;SDS011;73079;52.914;-0.982;2024-02-26T06:47:30;7.95;;;1.88;;
53549;SDS011;73079;52.914;-0.982;2024-02-26T06:49:56;4.50;;;1.60;;
53549;SDS011;73079;52.914;-0.982;2024-02-26T06:52:23;5.68;;;1.52;;
53549;SDS011;73079;52.914;-0.982;2024-02-26T06:54:52;5.70;;;2.28;;
53549;SDS011;73079;52.914;-0.982;2024-02-26T06:57:18;5.32;;;1.95;;
53549;SDS011;73079;52.914;-0.982;2024-02-26T06:59:44;8.52;;;1.80;;
53549;SDS011;73079;52.914;-0.982;2024-02-26T07:02:12;4.85;;;1.40;;
53549;SDS011;73079;52.914;-0.982;2024-02-26T07:04:39;5.15;;;1.92;;
53549;SDS011;73079;52.914;-0.982;2024-02-26T07:07:07;6.82;;;1.48;;
53549;SDS011;73079;52.914;-0.982;2024-02-26T07:09:33;5.00;;;1.10;;
53549;SDS011;73079;52.914;-0.982;2024-02-26T07:12:00;2.33;;;1.45;;
53549;SDS011;73079;52.914;-0.982;2024-02-26T07:14:26;5.28;;;2.45;;
53549;SDS011;73079;52.914;-0.982;2024-02-26T07:16:52;3.03;;;1.38;;
53549;SDS011;73079;52.914;-0.982;2024-02-26T07:19:18;3.13;;;1.77;;
53549;SDS011;73079;52.914;-0.982;2024-02-26T07:21:44;3.05;;;1.60;;
53549;SDS011;73079;52.914;-0.982;2024-02-26T07:24:10;4.40;;;1.73;;
53549;SDS011;73079;52.914;-0.982;2024-02-26T07:26:35;5.32;;;2.05;;
53549;SDS011;73079;52.914;-0.982;2024-02-26T07:29:03;7.47;;;1.92;;
53549;SDS011;73079;52.914;-0.982;2024-02-26T07:31:29;6.68;;;1.65;;
53549;SDS011;73079;52.914;-0.982;2024-02-26T07:33:55;5.18;;;1.55;;
53549;SDS011;73079;52.914;-0.982;2024-02-26T07:36:21;4.10;;;1.65;;
53549;SDS011;73079;52.914;-0.982;2024-02-26T07:38:47;11.35;;;2.15;;
53549;SDS011;73079;52.914;-0.982;2024-02-26T07:41:13;1.40;;;1.13;;
53549;SDS011;73079;52.914;-0.982;2024-02-26T07:43:39;8.27;;;2.35;;
53549;SDS011;73079;52.914;-0.982;2024-02-26T07:46:07;7.38;;;1.75;;
53549;SDS011;73079;52.914;-0.982;2024-02-26T07:48:36;2.35;;;1.27;;
53549;SDS011;73079;52.914;-0.982;2024-02-26T07:51:02;6.18;;;2.08;;
53549;SDS011;73079;52.914;-0.982;2024-02-26T07:53:29;3.50;;;2.05;;
53549;SDS011;73079;52.914;-0.982;2024-02-26T07:55:56;4.85;;;1.35;;
53549;SDS011;73079;52.914;-0.982;2024-02-26T07:58:23;6.65;;;1.92;;
53549;SDS011;73079;52.914;-0.982;2024-02-26T08:00:49;3.45;;;1.42;;
53549;SDS011;73079;52.914;-0.982;2024-02-26T08:03:17;3.45;;;1.60;;
53549;SDS011;73079;52.914;-0.982;2024-02-26T08:05:43;3.38;;;1.15;;
53549;SDS011;73079;52.914;-0.982;2024-02-26T08:08:08;4.75;;;1.65;;
53549;SDS011;73079;52.914;-0.982;2024-02-26T08:10:34;7.82;;;1.63;;
53549;SDS011;73079;52.914;-0.982;2024-02-26T08:13:00;2.88;;;1.58;;
53549;SDS011;73079;52.914;-0.982;2024-02-26T08:15:30;7.40;;;2.17;;
53549;SDS011;73079;52.914;-0.982;2024-02-26T08:17:56;2.97;;;1.98;;
53549;SDS011;73079;52.914;-0.982;2024-02-26T08:20:23;3.30;;;1.40;;
53549;SDS011;73079;52.914;-0.982;2024-02-26T08:22:49;3.50;;;1.48;;
53549;SDS011;73079;52.914;-0.982;2024-02-26T08:25:15;3.30;;;1.40;;
53549;SDS011;73079;52.914;-0.982;2024-02-26T08:27:42;5.50;;;1.85;;
53549;SDS011;73079;52.914;-0.982;2024-02-26T08:30:08;5.70;;;1.45;;
53549;SDS011;73079;52.914;-0.982;2024-02-26T08:32:35;2.90;;;1.63;;
53549;SDS011;73079;52.914;-0.982;2024-02-26T08:35:01;3.42;;;1.73;;
53549;SDS011;73079;52.914;-0.982;2024-02-26T08:37:28;4.55;;;1.38;;
53549;SDS011;73079;52.914;-0.982;2024-02-26T08:39:54;3.17;;;1.40;;
53549;SDS011;73079;52.914;-0.982;2024-02-26T08:42:19;4.32;;;1.35;;
53549;SDS011;73079;52.914;-0.982;2024-02-26T08:44:45;2.28;;;1.48;;
53549;SDS011;73079;52.914;-0.982;2024-02-26T08:47:11;6.57;;;1.75;;
53549;SDS011;73079;52.914;-0.982;2024-02-26T08:49:42;3.20;;;1.33;;
53549;SDS011;73079;52.914;-0.982;2024-02-26T08:52:07;2.60;;;1.13;;
53549;SDS011;73079;52.914;-0.982;2024-02-26T08:54:34;3.03;;;1.30;;
53549;SDS011;73079;52.914;-0.982;2024-02-26T08:57:00;6.93;;;1.70;;
53549;SDS011;73079;52.914;-0.982;2024-02-26T08:59:26;6.47;;;2.10;;
53549;SDS011;73079;52.914;-0.982;2024-02-26T09:01:52;3.38;;;1.52;;
53549;SDS011;73079;52.914;-0.982;2024-02-26T09:04:17;6.10;;;2.33;;
53549;SDS011;73079;52.914;-0.982;2024-02-26T09:06:43;4.40;;;1.48;;
53549;SDS011;73079;52.914;-0.982;2024-02-26T09:09:09;5.72;;;1.50;;
53549;SDS011;73079;52.914;-0.982;2024-02-26T09:11:36;10.20;;;1.77;;
53549;SDS011;73079;52.914;-0.982;2024-02-26T09:14:02;2.15;;;1.30;;
53549;SDS011;73079;52.914;-0.982;2024-02-26T09:16:28;3.65;;;1.88;;
53549;SDS011;73079;52.914;-0.982;2024-02-26T09:18:54;2.92;;;1.70;;
53549;SDS011;73079;52.914;-0.982;2024-02-26T09:21:20;6.13;;;2.25;;
53549;SDS011;73079;52.914;-0.982;2024-02-26T09:23:48;5.22;;;1.38;;
53549;SDS011;73079;52.914;-0.982;2024-02-26T09:26:14;1.67;;;1.35;;
53549;SDS011;73079;52.914;-0.982;2024-02-26T09:28:41;5.03;;;2.05;;
53549;SDS011;73079;52.914;-0.982;2024-02-26T09:31:07;5.20;;;1.80;;
53549;SDS011;73079;52.914;-0.982;2024-02-26T09:33:33;7.15;;;2.03;;
53549;SDS011;73079;52.914;-0.982;2024-02-26T09:35:59;4.28;;;1.67;;
53549;SDS011;73079;52.914;-0.982;2024-02-26T09:38:26;5.00;;;1.30;;
53549;SDS011;73079;52.914;-0.982;2024-02-26T09:40:55;4.75;;;1.38;;
53549;SDS011;73079;52.914;-0.982;2024-02-26T09:43:23;6.03;;;1.45;;
53549;SDS011;73079;52.914;-0.982;2024-02-26T09:45:51;5.85;;;1.52;;
53549;SDS011;73079;52.914;-0.982;2024-02-26T09:48:19;4.20;;;1.58;;
53549;SDS011;73079;52.914;-0.982;2024-02-26T09:50:47;4.78;;;1.40;;
53549;SDS011;73079;52.914;-0.982;2024-02-26T09:53:13;3.63;;;1.45;;
53549;SDS011;73079;52.914;-0.982;2024-02-26T09:55:40;8.50;;;1.95;;
53549;SDS011;73079;52.914;-0.982;2024-02-26T09:58:07;6.72;;;1.40;;
53549;SDS011;73079;52.914;-0.982;2024-02-26T10:00:33;4.65;;;1.65;;
53549;SDS011;73079;52.914;-0.982;2024-02-26T10:03:06;4.43;;;1.63;;
53549;SDS011;73079;52.914;-0.982;2024-02-26T10:05:40;4.00;;;1.45;;
53549;SDS011;73079;52.914;-0.982;2024-02-26T10:08:07;3.83;;;1.60;;
53549;SDS011;73079;52.914;-0.982;2024-02-26T10:10:34;2.78;;;1.40;;
53549;SDS011;73079;52.914;-0.982;2024-02-26T10:13:01;3.17;;;1.50;;
53549;SDS011;73079;52.914;-0.982;2024-02-26T10:15:35;5.78;;;1.98;;
53549;SDS011;73079;52.914;-0.982;2024-02-26T10:18:04;5.03;;;1.48;;
53549;SDS011;73079;52.914;-0.982;2024-02-26T10:20:31;6.88;;;1.75;;
53549;SDS011;73079;52.914;-0.982;2024-02-26T10:22:57;4.22;;;1.58;;
53549;SDS011;73079;52.914;-0.982;2024-02-26T10:25:23;5.78;;;1.38;;
53549;SDS011;73079;52.914;-0.982;2024-02-26T10:27:49;3.08;;;1.20;;
53549;SDS011;73079;52.914;-0.982;2024-02-26T10:30:18;3.20;;;1.23;;
53549;SDS011;73079;52.914;-0.982;2024-02-26T10:32:45;6.28;;;1.42;;
53549;SDS011;73079;52.914;-0.982;2024-02-26T10:35:13;4.53;;;1.60;;
53549;SDS011;73079;52.914;-0.982;2024-02-26T10:37:39;7.78;;;1.70;;
53549;SDS011;73079;52.914;-0.982;2024-02-26T10:40:06;4.93;;;1.58;;
53549;SDS011;73079;52.914;-0.982;2024-02-26T10:42:35;5.93;;;2.40;;
53549;SDS011;73079;52.914;-0.982;2024-02-26T10:45:01;7.07;;;2.03;;
53549;SDS011;73079;52.914;-0.982;2024-02-26T10:47:28;3.80;;;1.70;;
53549;SDS011;73079;52.914;-0.982;2024-02-26T10:49:54;6.75;;;1.92;;
53549;SDS011;73079;52.914;-0.982;2024-02-26T10:52:23;5.20;;;1.75;;
53549;SDS011;73079;52.914;-0.982;2024-02-26T10:54:51;8.40;;;1.75;;
53549;SDS011;73079;52.914;-0.982;2024-02-26T10:57:19;7.43;;;2.50;;
53549;SDS011;73079;52.914;-0.982;2024-02-26T10:59:46;6.65;;;1.75;;
53549;SDS011;73079;52.914;-0.982;2024-02-26T11:02:14;3.50;;;1.75;;
53549;SDS011;73079;52.914;-0.982;2024-02-26T11:04:40;6.63;;;2.22;;
53549;SDS011;73079;52.914;-0.982;2024-02-26T11:07:08;3.03;;;1.50;;
53549;SDS011;73079;52.914;-0.982;2024-02-26T11:09:37;6.03;;;1.55;;
53549;SDS011;73079;52.914;-0.982;2024-02-26T11:12:09;6.43;;;1.52;;
53549;SDS011;73079;52.914;-0.982;2024-02-26T11:14:38;4.03;;;1.27;;
53549;SDS011;73079;52.914;-0.982;2024-02-26T11:17:05;5.28;;;1.83;;
53549;SDS011;73079;52.914;-0.982;2024-02-26T11:19:32;4.70;;;1.80;;
53549;SDS011;73079;52.914;-0.982;2024-02-26T11:22:01;3.15;;;1.38;;
53549;SDS011;73079;52.914;-0.982;2024-02-26T11:24:27;3.88;;;1.50;;
53549;SDS011;73079;52.914;-0.982;2024-02-26T11:26:55;3.17;;;1.17;;
53549;SDS011;73079;52.914;-0.982;2024-02-26T11:29:26;6.05;;;1.65;;
53549;SDS011;73079;52.914;-0.982;2024-02-26T11:31:55;6.97;;;1.67;;
53549;SDS011;73079;52.914;-0.982;2024-02-26T11:34:21;3.45;;;1.75;;
53549;SDS011;73079;52.914;-0.982;2024-02-26T11:36:46;7.95;;;1.48;;
53549;SDS011;73079;52.914;-0.982;2024-02-26T11:39:12;8.13;;;3.22;;
53549;SDS011;73079;52.914;-0.982;2024-02-26T11:41:42;5.85;;;1.20;;
53549;SDS011;73079;52.914;-0.982;2024-02-26T11:44:12;3.85;;;1.33;;
53549;SDS011;73079;52.914;-0.982;2024-02-26T11:46:38;5.30;;;1.17;;
53549;SDS011;73079;52.914;-0.982;2024-02-26T11:51:56;7.40;;;1.58;;
53549;SDS011;73079;52.914;-0.982;2024-02-26T11:54:38;3.08;;;1.10;;
53549;SDS011;73079;52.914;-0.982;2024-02-26T11:57:19;2.22;;;1.10;;
53549;SDS011;73079;52.914;-0.982;2024-02-26T11:59:50;6.82;;;2.55;;
53549;SDS011;73079;52.914;-0.982;2024-02-26T12:05:06;2.92;;;1.63;;
53549;SDS011;73079;52.914;-0.982;2024-02-26T12:07:34;2.50;;;1.15;;
53549;SDS011;73079;52.914;-0.982;2024-02-26T12:10:13;5.38;;;1.67;;
53549;SDS011;73079;52.914;-0.982;2024-02-26T12:12:41;3.78;;;1.20;;
53549;SDS011;73079;52.914;-0.982;2024-02-26T12:15:08;2.55;;;1.30;;
53549;SDS011;73079;52.914;-0.982;2024-02-26T12:17:36;5.13;;;1.80;;
53549;SDS011;73079;52.914;-0.982;2024-02-26T12:20:10;4.53;;;1.40;;
53549;SDS011;73079;52.914;-0.982;2024-02-26T12:22:36;2.03;;;1.10;;
53549;SDS011;73079;52.914;-0.982;2024-02-26T12:25:04;3.08;;;1.73;;
53549;SDS011;73079;52.914;-0.982;2024-02-26T12:27:31;4.20;;;1.25;;
53549;SDS011;73079;52.914;-0.982;2024-02-26T12:29:56;4.45;;;1.55;;
53549;SDS011;73079;52.914;-0.982;2024-02-26T12:32:23;4.03;;;1.52;;
53549;SDS011;73079;52.914;-0.982;2024-02-26T12:34:50;7.35;;;1.40;;
53549;SDS011;73079;52.914;-0.982;2024-02-26T12:37:16;3.50;;;1.10;;
53549;SDS011;73079;52.914;-0.982;2024-02-26T12:39:42;3.83;;;1.30;;
53549;SDS011;73079;52.914;-0.982;2024-02-26T12:42:08;4.53;;;1.42;;
53549;SDS011;73079;52.914;-0.982;2024-02-26T12:44:34;6.38;;;1.30;;
53549;SDS011;73079;52.914;-0.982;2024-02-26T12:47:00;11.40;;;1.63;;
53549;SDS011;73079;52.914;-0.982;2024-02-26T12:49:30;7.88;;;1.67;;
53549;SDS011;73079;52.914;-0.982;2024-02-26T12:51:56;1.67;;;1.15;;
53549;SDS011;73079;52.914;-0.982;2024-02-26T12:54:26;5.25;;;1.60;;
53549;SDS011;73079;52.914;-0.982;2024-02-26T12:56:52;3.88;;;1.38;;
53549;SDS011;73079;52.914;-0.982;2024-02-26T12:59:18;3.05;;;1.27;;
53549;SDS011;73079;52.914;-0.982;2024-02-26T13:01:44;5.93;;;1.35;;
53549;SDS011;73079;52.914;-0.982;2024-02-26T13:04:11;5.47;;;1.55;;
53549;SDS011;73079;52.914;-0.982;2024-02-26T13:06:46;4.00;;;1.40;;
53549;SDS011;73079;52.914;-0.982;2024-02-26T13:09:12;6.47;;;2.30;;
53549;SDS011;73079;52.914;-0.982;2024-02-26T13:11:39;7.18;;;2.47;;
53549;SDS011;73079;52.914;-0.982;2024-02-26T13:14:05;6.30;;;1.60;;
53549;SDS011;73079;52.914;-0.982;2024-02-26T13:16:32;3.10;;;1.40;;
53549;SDS011;73079;52.914;-0.982;2024-02-26T13:19:07;5.40;;;1.40;;
53549;SDS011;73079;52.914;-0.982;2024-02-26T13:21:34;6.80;;;1.83;;
53549;SDS011;73079;52.914;-0.982;2024-02-26T13:24:01;2.00;;;1.50;;
53549;SDS011;73079;52.914;-0.982;2024-02-26T13:26:27;7.80;;;1.98;;
53549;SDS011;73079;52.914;-0.982;2024-02-26T13:29:00;3.88;;;1.55;;
53549;SDS011;73079;52.914;-0.982;2024-02-26T13:31:27;2.15;;;1.30;;
53549;SDS011;73079;52.914;-0.982;2024-02-26T13:33:53;1.45;;;1.25;;
53549;SDS011;73079;52.914;-0.982;2024-02-26T13:36:21;5.03;;;1.63;;
53549;SDS011;73079;52.914;-0.982;2024-02-26T13:38:50;3.42;;;1.63;;
53549;SDS011;73079;52.914;-0.982;2024-02-26T13:41:19;3.72;;;1.52;;
53549;SDS011;73079;52.914;-0.982;2024-02-26T13:43:44;2.40;;;1.45;;
53549;SDS011;73079;52.914;-0.982;2024-02-26T13:46:10;5.57;;;1.38;;
53549;SDS011;73079;52.914;-0.982;2024-02-26T13:48:38;4.30;;;1.73;;
53549;SDS011;73079;52.914;-0.982;2024-02-26T13:51:04;6.22;;;1.33;;
53549;SDS011;73079;52.914;-0.982;2024-02-26T13:53:30;6.50;;;1.50;;
53549;SDS011;73079;52.914;-0.982;2024-02-26T13:55:56;3.13;;;1.35;;
53549;SDS011;73079;52.914;-0.982;2024-02-26T13:58:25;7.35;;;1.85;;
53549;SDS011;73079;52.914;-0.982;2024-02-26T14:00:52;4.47;;;1.45;;
53549;SDS011;73079;52.914;-0.982;2024-02-26T14:03:18;6.43;;;2.00;;
53549;SDS011;73079;52.914;-0.982;2024-02-26T14:05:44;10.95;;;2.50;;
53549;SDS011;73079;52.914;-0.982;2024-02-26T14:08:10;4.72;;;1.50;;
53549;SDS011;73079;52.914;-0.982;2024-02-26T14:10:36;6.18;;;1.63;;
53549;SDS011;73079;52.914;-0.982;2024-02-26T14:13:03;5.93;;;1.45;;
53549;SDS011;73079;52.914;-0.982;2024-02-26T14:15:30;4.15;;;1.60;;
53549;SDS011;73079;52.914;-0.982;2024-02-26T14:17:56;3.30;;;1.33;;
53549;SDS011;73079;52.914;-0.982;2024-02-26T14:20:22;6.45;;;1.33;;
53549;SDS011;73079;52.914;-0.982;2024-02-26T14:22:49;6.50;;;2.33;;
53549;SDS011;73079;52.914;-0.982;2024-02-26T14:25:14;2.35;;;1.20;;
53549;SDS011;73079;52.914;-0.982;2024-02-26T14:27:40;7.85;;;1.98;;
53549;SDS011;73079;52.914;-0.982;2024-02-26T14:30:07;2.90;;;1.23;;
53549;SDS011;73079;52.914;-0.982;2024-02-26T14:32:34;2.20;;;1.38;;
53549;SDS011;73079;52.914;-0.982;2024-02-26T14:35:03;4.28;;;1.73;;
53549;SDS011;73079;52.914;-0.982;2024-02-26T14:37:31;3.03;;;1.67;;